Terminal Aerodrome Forecast
Issued by NWS

Current Version | Previous Version | Text Only | Print | Product List | Glossary Off
Versions: 1 2 3 4 5 6 7 8 9 10 11 12 13 14 15 16 17 18 19 20 21 22 23

000
FTUS41 KRLX 262330
TAFCKB
TAF
KCKB 262330Z 2700/2724 18005KT P6SM VCTS SCT035CB BKN080
     FM270300 17005KT 3SM TSRA BR BKN030CB BKN070
     FM270500 19004KT 4SM SHRA BR VCTS SCT001 BKN030CB
     FM270800 20005KT 4SM BR SCT001 BKN020
     FM271400 22007KT P6SM BKN025=

USA.gov is the U.S. government's official web portal to all federal, state and local government web resources and services.